sensor_id;sensor_type;location;lat;lon;timestamp;P1;durP1;ratioP1;P2;durP2;ratioP2
79792;SDS011;69279;49.072;17.462;2023-05-23T00:00:35;2.33;;;1.88;;
79792;SDS011;69279;49.072;17.462;2023-05-23T00:03:01;2.67;;;2.15;;
79792;SDS011;69279;49.072;17.462;2023-05-23T00:05:26;2.30;;;2.10;;
79792;SDS011;69279;49.072;17.462;2023-05-23T00:07:53;2.50;;;2.20;;
79792;SDS011;69279;49.072;17.462;2023-05-23T00:10:19;2.55;;;2.20;;
79792;SDS011;69279;49.072;17.462;2023-05-23T00:12:44;2.58;;;2.08;;
79792;SDS011;69279;49.072;17.462;2023-05-23T00:15:12;3.15;;;2.10;;
79792;SDS011;69279;49.072;17.462;2023-05-23T00:17:38;2.63;;;2.17;;
79792;SDS011;69279;49.072;17.462;2023-05-23T00:20:05;2.60;;;2.00;;
79792;SDS011;69279;49.072;17.462;2023-05-23T00:22:33;2.75;;;1.90;;
79792;SDS011;69279;49.072;17.462;2023-05-23T00:25:00;2.72;;;2.22;;
79792;SDS011;69279;49.072;17.462;2023-05-23T00:27:26;2.75;;;2.05;;
79792;SDS011;69279;49.072;17.462;2023-05-23T00:29:51;2.28;;;2.08;;
79792;SDS011;69279;49.072;17.462;2023-05-23T00:32:17;2.92;;;2.13;;
79792;SDS011;69279;49.072;17.462;2023-05-23T00:34:42;3.03;;;2.00;;
79792;SDS011;69279;49.072;17.462;2023-05-23T00:37:09;3.92;;;2.50;;
79792;SDS011;69279;49.072;17.462;2023-05-23T00:39:35;2.38;;;1.85;;
79792;SDS011;69279;49.072;17.462;2023-05-23T00:42:02;2.50;;;1.83;;
79792;SDS011;69279;49.072;17.462;2023-05-23T00:44:28;2.63;;;1.95;;
79792;SDS011;69279;49.072;17.462;2023-05-23T00:46:54;2.50;;;1.98;;
79792;SDS011;69279;49.072;17.462;2023-05-23T00:49:20;2.83;;;2.00;;
79792;SDS011;69279;49.072;17.462;2023-05-23T00:51:46;2.83;;;2.05;;
79792;SDS011;69279;49.072;17.462;2023-05-23T00:54:13;2.10;;;1.90;;
79792;SDS011;69279;49.072;17.462;2023-05-23T00:56:40;2.35;;;2.08;;
79792;SDS011;69279;49.072;17.462;2023-05-23T00:59:07;3.13;;;1.92;;
79792;SDS011;69279;49.072;17.462;2023-05-23T01:01:33;2.58;;;2.03;;
79792;SDS011;69279;49.072;17.462;2023-05-23T01:04:01;2.60;;;1.80;;
79792;SDS011;69279;49.072;17.462;2023-05-23T01:06:28;2.63;;;2.05;;
79792;SDS011;69279;49.072;17.462;2023-05-23T01:08:54;2.90;;;2.22;;
79792;SDS011;69279;49.072;17.462;2023-05-23T01:11:26;2.33;;;2.00;;
79792;SDS011;69279;49.072;17.462;2023-05-23T01:13:58;2.83;;;2.20;;
79792;SDS011;69279;49.072;17.462;2023-05-23T01:22:04;3.25;;;2.00;;
79792;SDS011;69279;49.072;17.462;2023-05-23T01:24:40;2.63;;;1.90;;
79792;SDS011;69279;49.072;17.462;2023-05-23T01:29:46;2.25;;;1.90;;
79792;SDS011;69279;49.072;17.462;2023-05-23T01:32:13;3.00;;;1.65;;
79792;SDS011;69279;49.072;17.462;2023-05-23T01:34:40;2.65;;;2.38;;
79792;SDS011;69279;49.072;17.462;2023-05-23T01:37:09;2.50;;;1.92;;
79792;SDS011;69279;49.072;17.462;2023-05-23T01:39:35;2.15;;;1.60;;
79792;SDS011;69279;49.072;17.462;2023-05-23T01:42:01;2.50;;;2.10;;
79792;SDS011;69279;49.072;17.462;2023-05-23T01:44:27;2.35;;;2.10;;
79792;SDS011;69279;49.072;17.462;2023-05-23T01:46:52;2.58;;;1.73;;
79792;SDS011;69279;49.072;17.462;2023-05-23T01:49:18;3.13;;;2.08;;
79792;SDS011;69279;49.072;17.462;2023-05-23T01:51:44;2.72;;;2.28;;
79792;SDS011;69279;49.072;17.462;2023-05-23T01:54:10;2.67;;;1.95;;
79792;SDS011;69279;49.072;17.462;2023-05-23T01:56:36;2.55;;;1.95;;
79792;SDS011;69279;49.072;17.462;2023-05-23T01:59:02;2.92;;;2.28;;
79792;SDS011;69279;49.072;17.462;2023-05-23T02:01:28;2.38;;;1.90;;
79792;SDS011;69279;49.072;17.462;2023-05-23T02:03:54;2.40;;;1.92;;
79792;SDS011;69279;49.072;17.462;2023-05-23T02:06:20;3.42;;;1.92;;
79792;SDS011;69279;49.072;17.462;2023-05-23T02:08:45;2.65;;;2.20;;
79792;SDS011;69279;49.072;17.462;2023-05-23T02:11:11;2.72;;;2.03;;
79792;SDS011;69279;49.072;17.462;2023-05-23T02:13:36;2.65;;;2.10;;
79792;SDS011;69279;49.072;17.462;2023-05-23T02:16:02;2.55;;;2.08;;
79792;SDS011;69279;49.072;17.462;2023-05-23T02:18:28;2.63;;;2.10;;
79792;SDS011;69279;49.072;17.462;2023-05-23T02:20:54;2.55;;;2.20;;
79792;SDS011;69279;49.072;17.462;2023-05-23T02:23:20;2.45;;;1.83;;
79792;SDS011;69279;49.072;17.462;2023-05-23T02:25:46;2.22;;;1.80;;
79792;SDS011;69279;49.072;17.462;2023-05-23T02:28:11;2.63;;;1.77;;
79792;SDS011;69279;49.072;17.462;2023-05-23T02:30:37;2.55;;;1.77;;
79792;SDS011;69279;49.072;17.462;2023-05-23T02:33:06;2.35;;;2.05;;
79792;SDS011;69279;49.072;17.462;2023-05-23T02:35:32;2.15;;;1.95;;
79792;SDS011;69279;49.072;17.462;2023-05-23T02:37:58;2.03;;;1.70;;
79792;SDS011;69279;49.072;17.462;2023-05-23T02:40:23;2.45;;;2.08;;
79792;SDS011;69279;49.072;17.462;2023-05-23T02:42:49;2.30;;;1.90;;
79792;SDS011;69279;49.072;17.462;2023-05-23T02:45:15;2.47;;;1.85;;
79792;SDS011;69279;49.072;17.462;2023-05-23T02:47:41;2.03;;;1.80;;
79792;SDS011;69279;49.072;17.462;2023-05-23T02:50:07;2.47;;;1.83;;
79792;SDS011;69279;49.072;17.462;2023-05-23T02:52:33;2.55;;;2.00;;
79792;SDS011;69279;49.072;17.462;2023-05-23T02:54:58;2.22;;;2.00;;
79792;SDS011;69279;49.072;17.462;2023-05-23T02:57:23;2.42;;;2.00;;
79792;SDS011;69279;49.072;17.462;2023-05-23T02:59:49;2.35;;;2.15;;
79792;SDS011;69279;49.072;17.462;2023-05-23T03:02:14;3.00;;;1.95;;
79792;SDS011;69279;49.072;17.462;2023-05-23T03:04:40;1.73;;;1.60;;
79792;SDS011;69279;49.072;17.462;2023-05-23T03:07:05;2.47;;;1.83;;
79792;SDS011;69279;49.072;17.462;2023-05-23T03:09:31;2.40;;;1.80;;
79792;SDS011;69279;49.072;17.462;2023-05-23T03:11:56;2.35;;;1.80;;
79792;SDS011;69279;49.072;17.462;2023-05-23T03:14:22;2.35;;;1.80;;
79792;SDS011;69279;49.072;17.462;2023-05-23T03:16:47;2.45;;;2.05;;
79792;SDS011;69279;49.072;17.462;2023-05-23T03:19:13;2.35;;;1.90;;
79792;SDS011;69279;49.072;17.462;2023-05-23T03:21:38;2.33;;;1.90;;
79792;SDS011;69279;49.072;17.462;2023-05-23T03:24:04;2.55;;;1.90;;
79792;SDS011;69279;49.072;17.462;2023-05-23T03:26:29;4.00;;;2.20;;
79792;SDS011;69279;49.072;17.462;2023-05-23T03:28:55;2.22;;;2.00;;
79792;SDS011;69279;49.072;17.462;2023-05-23T03:31:20;2.50;;;1.90;;
79792;SDS011;69279;49.072;17.462;2023-05-23T03:33:46;2.50;;;1.90;;
79792;SDS011;69279;49.072;17.462;2023-05-23T03:36:11;2.10;;;1.75;;
79792;SDS011;69279;49.072;17.462;2023-05-23T03:38:36;2.55;;;2.05;;
79792;SDS011;69279;49.072;17.462;2023-05-23T03:41:02;2.05;;;1.83;;
79792;SDS011;69279;49.072;17.462;2023-05-23T03:43:27;3.20;;;2.30;;
79792;SDS011;69279;49.072;17.462;2023-05-23T03:45:53;2.85;;;2.15;;
79792;SDS011;69279;49.072;17.462;2023-05-23T03:48:18;2.47;;;1.90;;
79792;SDS011;69279;49.072;17.462;2023-05-23T03:50:43;2.15;;;1.92;;
79792;SDS011;69279;49.072;17.462;2023-05-23T03:53:09;2.60;;;1.88;;
79792;SDS011;69279;49.072;17.462;2023-05-23T03:55:34;2.55;;;1.73;;
79792;SDS011;69279;49.072;17.462;2023-05-23T03:58:00;3.60;;;2.10;;
79792;SDS011;69279;49.072;17.462;2023-05-23T04:00:25;2.38;;;1.98;;
79792;SDS011;69279;49.072;17.462;2023-05-23T04:02:51;2.92;;;1.90;;
79792;SDS011;69279;49.072;17.462;2023-05-23T04:05:17;2.33;;;2.10;;
79792;SDS011;69279;49.072;17.462;2023-05-23T04:07:43;2.17;;;1.80;;
79792;SDS011;69279;49.072;17.462;2023-05-23T04:10:08;2.20;;;2.00;;
79792;SDS011;69279;49.072;17.462;2023-05-23T04:12:34;2.85;;;1.88;;
79792;SDS011;69279;49.072;17.462;2023-05-23T04:15:00;2.38;;;2.05;;
79792;SDS011;69279;49.072;17.462;2023-05-23T04:17:26;2.85;;;1.80;;
79792;SDS011;69279;49.072;17.462;2023-05-23T04:19:53;2.80;;;1.92;;
79792;SDS011;69279;49.072;17.462;2023-05-23T04:22:18;2.15;;;1.90;;
79792;SDS011;69279;49.072;17.462;2023-05-23T04:24:44;2.95;;;2.13;;
79792;SDS011;69279;49.072;17.462;2023-05-23T04:27:09;3.03;;;1.98;;
79792;SDS011;69279;49.072;17.462;2023-05-23T04:29:35;2.90;;;2.03;;
79792;SDS011;69279;49.072;17.462;2023-05-23T04:32:01;2.50;;;2.00;;
79792;SDS011;69279;49.072;17.462;2023-05-23T04:34:26;2.28;;;1.98;;
79792;SDS011;69279;49.072;17.462;2023-05-23T04:36:52;2.78;;;1.92;;
79792;SDS011;69279;49.072;17.462;2023-05-23T04:39:18;3.97;;;2.15;;
79792;SDS011;69279;49.072;17.462;2023-05-23T04:41:44;2.42;;;2.10;;
79792;SDS011;69279;49.072;17.462;2023-05-23T04:44:10;3.28;;;2.10;;
79792;SDS011;69279;49.072;17.462;2023-05-23T04:46:35;2.60;;;1.90;;
79792;SDS011;69279;49.072;17.462;2023-05-23T04:49:01;4.18;;;2.30;;
79792;SDS011;69279;49.072;17.462;2023-05-23T04:51:28;4.07;;;2.03;;
79792;SDS011;69279;49.072;17.462;2023-05-23T04:53:53;3.05;;;2.22;;
79792;SDS011;69279;49.072;17.462;2023-05-23T04:56:19;4.32;;;2.20;;
79792;SDS011;69279;49.072;17.462;2023-05-23T04:58:46;4.05;;;2.30;;
79792;SDS011;69279;49.072;17.462;2023-05-23T05:01:12;3.30;;;1.90;;
79792;SDS011;69279;49.072;17.462;2023-05-23T05:03:38;6.65;;;2.20;;
79792;SDS011;69279;49.072;17.462;2023-05-23T05:06:04;3.90;;;2.25;;
79792;SDS011;69279;49.072;17.462;2023-05-23T05:08:30;3.08;;;1.92;;
79792;SDS011;69279;49.072;17.462;2023-05-23T05:10:56;3.83;;;2.17;;
79792;SDS011;69279;49.072;17.462;2023-05-23T05:13:22;2.53;;;2.13;;
79792;SDS011;69279;49.072;17.462;2023-05-23T05:15:50;3.88;;;2.33;;
79792;SDS011;69279;49.072;17.462;2023-05-23T05:18:16;5.95;;;4.03;;
79792;SDS011;69279;49.072;17.462;2023-05-23T05:20:42;4.55;;;3.22;;
79792;SDS011;69279;49.072;17.462;2023-05-23T05:23:07;5.32;;;3.80;;
79792;SDS011;69279;49.072;17.462;2023-05-23T05:25:34;7.15;;;4.07;;
79792;SDS011;69279;49.072;17.462;2023-05-23T05:28:00;6.18;;;3.97;;
79792;SDS011;69279;49.072;17.462;2023-05-23T05:30:30;6.07;;;4.28;;
79792;SDS011;69279;49.072;17.462;2023-05-23T05:32:57;5.32;;;3.97;;
79792;SDS011;69279;49.072;17.462;2023-05-23T05:35:26;6.80;;;4.38;;
79792;SDS011;69279;49.072;17.462;2023-05-23T05:37:51;6.78;;;4.07;;
79792;SDS011;69279;49.072;17.462;2023-05-23T05:40:20;6.30;;;4.50;;
79792;SDS011;69279;49.072;17.462;2023-05-23T05:42:47;7.65;;;5.15;;
79792;SDS011;69279;49.072;17.462;2023-05-23T05:45:23;6.88;;;4.00;;
79792;SDS011;69279;49.072;17.462;2023-05-23T05:47:48;6.13;;;4.07;;
79792;SDS011;69279;49.072;17.462;2023-05-23T05:50:14;6.68;;;4.70;;
79792;SDS011;69279;49.072;17.462;2023-05-23T05:52:40;6.38;;;4.32;;
79792;SDS011;69279;49.072;17.462;2023-05-23T05:55:09;8.52;;;4.35;;
79792;SDS011;69279;49.072;17.462;2023-05-23T05:57:35;5.38;;;3.88;;
79792;SDS011;69279;49.072;17.462;2023-05-23T06:00:06;6.40;;;4.20;;
79792;SDS011;69279;49.072;17.462;2023-05-23T06:02:42;6.80;;;3.85;;
79792;SDS011;69279;49.072;17.462;2023-05-23T06:05:10;7.07;;;4.63;;
79792;SDS011;69279;49.072;17.462;2023-05-23T06:07:40;5.72;;;4.35;;
79792;SDS011;69279;49.072;17.462;2023-05-23T06:10:08;6.32;;;4.10;;
79792;SDS011;69279;49.072;17.462;2023-05-23T06:12:46;5.57;;;4.22;;
79792;SDS011;69279;49.072;17.462;2023-05-23T06:15:14;6.15;;;4.43;;
79792;SDS011;69279;49.072;17.462;2023-05-23T06:17:40;5.40;;;4.30;;
79792;SDS011;69279;49.072;17.462;2023-05-23T06:20:07;6.75;;;4.57;;
79792;SDS011;69279;49.072;17.462;2023-05-23T06:22:37;6.80;;;4.68;;
79792;SDS011;69279;49.072;17.462;2023-05-23T06:25:03;7.93;;;4.50;;
79792;SDS011;69279;49.072;17.462;2023-05-23T06:27:29;8.20;;;4.55;;
79792;SDS011;69279;49.072;17.462;2023-05-23T06:29:55;6.00;;;4.13;;
79792;SDS011;69279;49.072;17.462;2023-05-23T06:32:20;6.60;;;4.45;;
79792;SDS011;69279;49.072;17.462;2023-05-23T06:34:46;5.88;;;4.00;;
79792;SDS011;69279;49.072;17.462;2023-05-23T06:37:12;6.82;;;4.78;;
79792;SDS011;69279;49.072;17.462;2023-05-23T06:39:42;6.65;;;4.20;;
79792;SDS011;69279;49.072;17.462;2023-05-23T06:42:08;7.82;;;4.35;;
79792;SDS011;69279;49.072;17.462;2023-05-23T06:44:33;6.65;;;4.97;;
79792;SDS011;69279;49.072;17.462;2023-05-23T06:47:00;6.70;;;4.55;;
79792;SDS011;69279;49.072;17.462;2023-05-23T06:49:25;6.85;;;4.53;;
79792;SDS011;69279;49.072;17.462;2023-05-23T06:51:52;7.72;;;4.47;;
79792;SDS011;69279;49.072;17.462;2023-05-23T06:54:18;6.18;;;4.70;;
79792;SDS011;69279;49.072;17.462;2023-05-23T06:56:44;8.43;;;4.70;;
79792;SDS011;69279;49.072;17.462;2023-05-23T06:59:10;6.45;;;3.97;;
79792;SDS011;69279;49.072;17.462;2023-05-23T07:01:44;7.30;;;4.18;;
79792;SDS011;69279;49.072;17.462;2023-05-23T07:04:10;6.35;;;4.50;;
79792;SDS011;69279;49.072;17.462;2023-05-23T07:06:36;9.40;;;4.95;;
79792;SDS011;69279;49.072;17.462;2023-05-23T07:09:03;6.28;;;4.82;;
79792;SDS011;69279;49.072;17.462;2023-05-23T07:11:30;5.72;;;4.32;;
79792;SDS011;69279;49.072;17.462;2023-05-23T07:13:57;6.47;;;4.40;;
79792;SDS011;69279;49.072;17.462;2023-05-23T07:16:23;6.15;;;4.57;;
79792;SDS011;69279;49.072;17.462;2023-05-23T07:18:49;7.10;;;4.90;;
79792;SDS011;69279;49.072;17.462;2023-05-23T07:21:14;5.40;;;4.10;;
79792;SDS011;69279;49.072;17.462;2023-05-23T07:23:40;7.78;;;5.15;;
79792;SDS011;69279;49.072;17.462;2023-05-23T07:26:08;7.57;;;4.75;;
79792;SDS011;69279;49.072;17.462;2023-05-23T07:28:34;6.20;;;4.35;;
79792;SDS011;69279;49.072;17.462;2023-05-23T07:31:00;7.65;;;4.68;;
79792;SDS011;69279;49.072;17.462;2023-05-23T07:33:26;7.30;;;4.80;;
79792;SDS011;69279;49.072;17.462;2023-05-23T07:35:54;6.65;;;4.55;;
79792;SDS011;69279;49.072;17.462;2023-05-23T07:38:21;6.10;;;4.53;;
79792;SDS011;69279;49.072;17.462;2023-05-23T07:40:47;6.60;;;4.32;;
79792;SDS011;69279;49.072;17.462;2023-05-23T07:43:17;6.03;;;4.75;;
79792;SDS011;69279;49.072;17.462;2023-05-23T07:45:46;6.15;;;4.95;;
79792;SDS011;69279;49.072;17.462;2023-05-23T07:48:15;7.18;;;4.80;;
79792;SDS011;69279;49.072;17.462;2023-05-23T07:50:45;7.60;;;4.85;;
79792;SDS011;69279;49.072;17.462;2023-05-23T07:53:12;7.35;;;4.72;;
79792;SDS011;69279;49.072;17.462;2023-05-23T07:55:38;8.07;;;4.78;;
79792;SDS011;69279;49.072;17.462;2023-05-23T07:58:05;6.22;;;5.05;;
79792;SDS011;69279;49.072;17.462;2023-05-23T08:00:31;8.52;;;4.30;;
79792;SDS011;69279;49.072;17.462;2023-05-23T08:02:57;7.15;;;4.80;;
79792;SDS011;69279;49.072;17.462;2023-05-23T08:05:22;8.02;;;5.10;;
79792;SDS011;69279;49.072;17.462;2023-05-23T08:07:48;7.95;;;4.10;;
79792;SDS011;69279;49.072;17.462;2023-05-23T08:10:13;6.40;;;4.55;;
79792;SDS011;69279;49.072;17.462;2023-05-23T08:12:39;9.25;;;5.00;;
79792;SDS011;69279;49.072;17.462;2023-05-23T08:15:05;7.10;;;5.05;;
79792;SDS011;69279;49.072;17.462;2023-05-23T08:17:31;7.63;;;4.60;;
79792;SDS011;69279;49.072;17.462;2023-05-23T08:19:56;9.73;;;4.72;;
79792;SDS011;69279;49.072;17.462;2023-05-23T08:22:26;10.02;;;5.43;;
79792;SDS011;69279;49.072;17.462;2023-05-23T08:24:51;8.25;;;4.18;;
79792;SDS011;69279;49.072;17.462;2023-05-23T08:27:17;7.78;;;4.82;;
79792;SDS011;69279;49.072;17.462;2023-05-23T08:29:42;9.82;;;4.35;;
79792;SDS011;69279;49.072;17.462;2023-05-23T08:32:09;8.10;;;4.65;;
79792;SDS011;69279;49.072;17.462;2023-05-23T08:34:38;9.07;;;4.72;;
79792;SDS011;69279;49.072;17.462;2023-05-23T08:37:18;7.88;;;4.18;;
79792;SDS011;69279;49.072;17.462;2023-05-23T08:39:46;8.93;;;4.90;;
79792;SDS011;69279;49.072;17.462;2023-05-23T08:42:12;7.28;;;4.53;;
79792;SDS011;69279;49.072;17.462;2023-05-23T08:44:38;7.93;;;4.47;;
79792;SDS011;69279;49.072;17.462;2023-05-23T08:47:04;6.75;;;4.57;;
79792;SDS011;69279;49.072;17.462;2023-05-23T08:49:33;8.75;;;3.95;;
79792;SDS011;69279;49.072;17.462;2023-05-23T08:52:01;7.03;;;4.15;;
79792;SDS011;69279;49.072;17.462;2023-05-23T08:54:28;5.97;;;4.45;;
79792;SDS011;69279;49.072;17.462;2023-05-23T08:56:54;6.97;;;4.38;;
79792;SDS011;69279;49.072;17.462;2023-05-23T08:59:20;6.82;;;4.15;;
79792;SDS011;69279;49.072;17.462;2023-05-23T09:01:47;9.95;;;4.60;;
79792;SDS011;69279;49.072;17.462;2023-05-23T09:04:14;8.68;;;4.20;;
79792;SDS011;69279;49.072;17.462;2023-05-23T09:06:39;7.20;;;3.95;;
79792;SDS011;69279;49.072;17.462;2023-05-23T09:09:05;6.45;;;4.18;;
79792;SDS011;69279;49.072;17.462;2023-05-23T09:11:31;6.40;;;4.28;;
79792;SDS011;69279;49.072;17.462;2023-05-23T09:13:58;7.75;;;4.22;;
79792;SDS011;69279;49.072;17.462;2023-05-23T09:16:24;7.70;;;3.92;;
79792;SDS011;69279;49.072;17.462;2023-05-23T09:18:56;5.90;;;4.38;;
79792;SDS011;69279;49.072;17.462;2023-05-23T09:21:23;4.65;;;4.10;;
79792;SDS011;69279;49.072;17.462;2023-05-23T09:23:50;8.60;;;4.20;;
79792;SDS011;69279;49.072;17.462;2023-05-23T09:26:16;6.30;;;4.15;;
79792;SDS011;69279;49.072;17.462;2023-05-23T09:28:44;6.88;;;4.03;;
79792;SDS011;69279;49.072;17.462;2023-05-23T09:31:25;7.72;;;3.90;;
79792;SDS011;69279;49.072;17.462;2023-05-23T09:33:54;7.22;;;4.03;;
79792;SDS011;69279;49.072;17.462;2023-05-23T09:36:29;7.78;;;3.85;;
79792;SDS011;69279;49.072;17.462;2023-05-23T09:39:01;10.55;;;4.50;;
79792;SDS011;69279;49.072;17.462;2023-05-23T09:41:33;5.95;;;4.00;;
79792;SDS011;69279;49.072;17.462;2023-05-23T09:44:03;7.63;;;4.60;;
79792;SDS011;69279;49.072;17.462;2023-05-23T09:46:35;9.88;;;4.88;;
79792;SDS011;69279;49.072;17.462;2023-05-23T09:49:08;6.50;;;4.35;;
79792;SDS011;69279;49.072;17.462;2023-05-23T09:51:41;6.53;;;4.15;;
79792;SDS011;69279;49.072;17.462;2023-05-23T09:54:07;6.97;;;4.47;;
79792;SDS011;69279;49.072;17.462;2023-05-23T09:56:36;8.10;;;4.70;;
79792;SDS011;69279;49.072;17.462;2023-05-23T09:59:06;9.82;;;5.22;;
79792;SDS011;69279;49.072;17.462;2023-05-23T10:01:35;6.82;;;4.53;;
79792;SDS011;69279;49.072;17.462;2023-05-23T10:04:01;9.43;;;5.07;;
79792;SDS011;69279;49.072;17.462;2023-05-23T10:06:34;7.47;;;4.68;;
79792;SDS011;69279;49.072;17.462;2023-05-23T10:09:08;9.88;;;4.88;;
79792;SDS011;69279;49.072;17.462;2023-05-23T10:14:09;6.25;;;4.68;;
79792;SDS011;69279;49.072;17.462;2023-05-23T10:22:28;5.22;;;4.45;;
79792;SDS011;69279;49.072;17.462;2023-05-23T10:24:57;9.75;;;5.05;;
79792;SDS011;69279;49.072;17.462;2023-05-23T10:27:26;7.40;;;4.93;;
79792;SDS011;69279;49.072;17.462;2023-05-23T10:29:53;7.30;;;4.95;;
79792;SDS011;69279;49.072;17.462;2023-05-23T10:32:20;7.22;;;5.13;;
79792;SDS011;69279;49.072;17.462;2023-05-23T10:34:53;6.30;;;5.22;;
79792;SDS011;69279;49.072;17.462;2023-05-23T10:37:52;8.27;;;5.43;;
79792;SDS011;69279;49.072;17.462;2023-05-23T10:40:26;5.43;;;4.70;;
79792;SDS011;69279;49.072;17.462;2023-05-23T10:43:09;6.22;;;5.03;;
79792;SDS011;69279;49.072;17.462;2023-05-23T10:45:41;6.93;;;4.90;;
79792;SDS011;69279;49.072;17.462;2023-05-23T10:53:33;5.95;;;4.70;;
79792;SDS011;69279;49.072;17.462;2023-05-23T10:56:00;5.50;;;4.80;;
79792;SDS011;69279;49.072;17.462;2023-05-23T10:58:28;7.55;;;4.95;;
79792;SDS011;69279;49.072;17.462;2023-05-23T11:00:55;7.28;;;5.00;;
79792;SDS011;69279;49.072;17.462;2023-05-23T11:03:32;5.63;;;4.72;;
79792;SDS011;69279;49.072;17.462;2023-05-23T11:09:22;6.75;;;5.20;;
79792;SDS011;69279;49.072;17.462;2023-05-23T11:15:20;8.88;;;5.45;;
79792;SDS011;69279;49.072;17.462;2023-05-23T11:17:15;7.10;;;5.20;;
79792;SDS011;69279;49.072;17.462;2023-05-23T11:19:58;8.65;;;5.32;;
79792;SDS011;69279;49.072;17.462;2023-05-23T11:22:29;5.60;;;4.45;;
79792;SDS011;69279;49.072;17.462;2023-05-23T11:24:55;6.53;;;4.78;;
79792;SDS011;69279;49.072;17.462;2023-05-23T11:27:33;6.40;;;4.97;;
79792;SDS011;69279;49.072;17.462;2023-05-23T11:30:01;5.32;;;4.82;;
79792;SDS011;69279;49.072;17.462;2023-05-23T11:32:29;7.10;;;5.20;;
79792;SDS011;69279;49.072;17.462;2023-05-23T11:34:57;7.93;;;4.80;;
79792;SDS011;69279;49.072;17.462;2023-05-23T11:37:27;5.03;;;4.40;;
79792;SDS011;69279;49.072;17.462;2023-05-23T11:39:54;6.47;;;4.88;;
79792;SDS011;69279;49.072;17.462;2023-05-23T11:42:19;8.35;;;4.53;;
79792;SDS011;69279;49.072;17.462;2023-05-23T11:44:47;8.02;;;5.05;;
79792;SDS011;69279;49.072;17.462;2023-05-23T11:47:14;6.13;;;4.95;;
79792;SDS011;69279;49.072;17.462;2023-05-23T11:49:39;7.50;;;4.85;;
79792;SDS011;69279;49.072;17.462;2023-05-23T11:52:05;7.55;;;5.13;;
79792;SDS011;69279;49.072;17.462;2023-05-23T11:54:31;8.55;;;4.85;;
79792;SDS011;69279;49.072;17.462;2023-05-23T11:56:57;7.25;;;4.70;;
79792;SDS011;69279;49.072;17.462;2023-05-23T11:59:23;6.05;;;4.78;;
79792;SDS011;69279;49.072;17.462;2023-05-23T12:01:50;6.28;;;4.15;;
79792;SDS011;69279;49.072;17.462;2023-05-23T12:04:16;6.93;;;4.90;;
79792;SDS011;69279;49.072;17.462;2023-05-23T12:06:44;10.82;;;4.80;;
79792;SDS011;69279;49.072;17.462;2023-05-23T12:09:11;6.93;;;4.55;;
79792;SDS011;69279;49.072;17.462;2023-05-23T12:11:38;6.57;;;4.88;;
79792;SDS011;69279;49.072;17.462;2023-05-23T12:14:04;8.07;;;5.55;;
79792;SDS011;69279;49.072;17.462;2023-05-23T12:16:31;7.93;;;4.82;;
79792;SDS011;69279;49.072;17.462;2023-05-23T12:18:57;7.07;;;4.57;;
79792;SDS011;69279;49.072;17.462;2023-05-23T12:21:24;6.05;;;4.45;;
79792;SDS011;69279;49.072;17.462;2023-05-23T12:26:52;5.35;;;4.50;;
79792;SDS011;69279;49.072;17.462;2023-05-23T12:29:29;8.50;;;4.93;;
79792;SDS011;69279;49.072;17.462;2023-05-23T12:31:59;6.72;;;4.85;;
79792;SDS011;69279;49.072;17.462;2023-05-23T12:34:25;6.68;;;4.40;;
79792;SDS011;69279;49.072;17.462;2023-05-23T12:36:54;7.22;;;4.78;;
79792;SDS011;69279;49.072;17.462;2023-05-23T12:39:24;4.95;;;3.92;;
79792;SDS011;69279;49.072;17.462;2023-05-23T12:41:51;6.38;;;4.82;;
79792;SDS011;69279;49.072;17.462;2023-05-23T12:44:16;5.80;;;4.40;;
79792;SDS011;69279;49.072;17.462;2023-05-23T12:46:42;10.65;;;4.97;;
79792;SDS011;69279;49.072;17.462;2023-05-23T12:49:07;6.97;;;4.95;;
79792;SDS011;69279;49.072;17.462;2023-05-23T12:51:33;7.45;;;4.57;;
79792;SDS011;69279;49.072;17.462;2023-05-23T12:53:59;8.98;;;5.28;;
79792;SDS011;69279;49.072;17.462;2023-05-23T12:56:25;17.25;;;5.30;;
79792;SDS011;69279;49.072;17.462;2023-05-23T12:58:50;16.65;;;4.88;;
79792;SDS011;69279;49.072;17.462;2023-05-23T13:01:18;16.77;;;5.40;;
79792;SDS011;69279;49.072;17.462;2023-05-23T13:03:44;11.25;;;4.82;;
79792;SDS011;69279;49.072;17.462;2023-05-23T13:06:09;17.23;;;5.53;;
79792;SDS011;69279;49.072;17.462;2023-05-23T13:08:36;12.38;;;5.05;;
79792;SDS011;69279;49.072;17.462;2023-05-23T13:11:05;9.93;;;5.25;;
79792;SDS011;69279;49.072;17.462;2023-05-23T13:13:31;14.13;;;5.57;;
79792;SDS011;69279;49.072;17.462;2023-05-23T13:15:57;15.15;;;4.75;;
79792;SDS011;69279;49.072;17.462;2023-05-23T13:18:23;14.48;;;5.10;;
79792;SDS011;69279;49.072;17.462;2023-05-23T13:20:48;11.77;;;4.90;;
79792;SDS011;69279;49.072;17.462;2023-05-23T13:23:14;14.10;;;5.10;;
79792;SDS011;69279;49.072;17.462;2023-05-23T13:25:40;9.02;;;4.30;;
79792;SDS011;69279;49.072;17.462;2023-05-23T13:28:05;9.88;;;4.65;;
79792;SDS011;69279;49.072;17.462;2023-05-23T13:30:31;10.57;;;4.47;;
79792;SDS011;69279;49.072;17.462;2023-05-23T13:32:56;7.45;;;4.40;;
79792;SDS011;69279;49.072;17.462;2023-05-23T13:35:22;12.48;;;5.10;;
79792;SDS011;69279;49.072;17.462;2023-05-23T13:37:47;10.13;;;4.95;;
79792;SDS011;69279;49.072;17.462;2023-05-23T13:40:16;8.85;;;5.15;;
79792;SDS011;69279;49.072;17.462;2023-05-23T13:42:43;9.98;;;4.90;;
79792;SDS011;69279;49.072;17.462;2023-05-23T13:45:08;9.77;;;4.47;;
79792;SDS011;69279;49.072;17.462;2023-05-23T13:47:34;9.38;;;4.57;;
79792;SDS011;69279;49.072;17.462;2023-05-23T13:50:01;7.25;;;4.22;;
79792;SDS011;69279;49.072;17.462;2023-05-23T13:52:27;12.40;;;4.63;;
79792;SDS011;69279;49.072;17.462;2023-05-23T13:54:52;6.57;;;4.38;;
79792;SDS011;69279;49.072;17.462;2023-05-23T13:57:18;8.00;;;4.40;;
79792;SDS011;69279;49.072;17.462;2023-05-23T13:59:43;6.93;;;3.55;;
79792;SDS011;69279;49.072;17.462;2023-05-23T14:02:09;9.18;;;4.32;;
79792;SDS011;69279;49.072;17.462;2023-05-23T14:04:35;6.30;;;4.35;;
79792;SDS011;69279;49.072;17.462;2023-05-23T14:07:00;7.68;;;4.25;;
79792;SDS011;69279;49.072;17.462;2023-05-23T14:09:25;8.52;;;4.25;;
79792;SDS011;69279;49.072;17.462;2023-05-23T14:11:51;6.05;;;4.05;;
79792;SDS011;69279;49.072;17.462;2023-05-23T14:14:17;9.65;;;4.30;;
79792;SDS011;69279;49.072;17.462;2023-05-23T14:16:42;7.90;;;4.68;;
79792;SDS011;69279;49.072;17.462;2023-05-23T14:19:08;8.18;;;4.13;;
79792;SDS011;69279;49.072;17.462;2023-05-23T14:21:33;7.80;;;3.97;;
79792;SDS011;69279;49.072;17.462;2023-05-23T14:24:03;8.00;;;4.80;;
79792;SDS011;69279;49.072;17.462;2023-05-23T14:26:28;6.85;;;4.43;;
79792;SDS011;69279;49.072;17.462;2023-05-23T14:28:54;8.27;;;4.90;;
79792;SDS011;69279;49.072;17.462;2023-05-23T14:31:19;7.88;;;4.35;;
79792;SDS011;69279;49.072;17.462;2023-05-23T14:33:45;8.18;;;4.22;;
79792;SDS011;69279;49.072;17.462;2023-05-23T14:36:11;6.65;;;4.13;;
79792;SDS011;69279;49.072;17.462;2023-05-23T14:38:37;7.18;;;4.13;;
79792;SDS011;69279;49.072;17.462;2023-05-23T14:41:03;5.72;;;3.80;;
79792;SDS011;69279;49.072;17.462;2023-05-23T14:43:29;7.00;;;3.78;;
79792;SDS011;69279;49.072;17.462;2023-05-23T14:45:54;5.15;;;4.00;;
79792;SDS011;69279;49.072;17.462;2023-05-23T14:48:20;7.57;;;4.00;;
79792;SDS011;69279;49.072;17.462;2023-05-23T14:50:46;6.63;;;4.05;;
79792;SDS011;69279;49.072;17.462;2023-05-23T14:53:11;4.95;;;3.80;;
79792;SDS011;69279;49.072;17.462;2023-05-23T14:55:37;6.38;;;4.05;;
79792;SDS011;69279;49.072;17.462;2023-05-23T14:58:02;6.38;;;3.80;;
79792;SDS011;69279;49.072;17.462;2023-05-23T15:00:29;7.28;;;4.00;;
79792;SDS011;69279;49.072;17.462;2023-05-23T15:02:55;6.25;;;3.85;;